createdAt,value
2022-08-05T00:01:35.602Z,13.60
2022-08-05T00:04:16.734Z,12.85
2022-08-05T00:06:47.119Z,13.63
2022-08-05T00:09:21.036Z,13.85
2022-08-05T00:11:55.618Z,13.95
2022-08-05T00:14:29.227Z,13.82
2022-08-05T00:16:58.009Z,13.57
2022-08-05T00:19:33.337Z,14.57
2022-08-05T00:22:11.065Z,13.43
2022-08-05T00:24:42.157Z,14.13
2022-08-05T00:27:16.794Z,14.15
2022-08-05T00:29:45.068Z,12.95
2022-08-05T00:32:15.473Z,13.52
2022-08-05T00:35:03.456Z,14.50
2022-08-05T00:37:51.376Z,14.57
2022-08-05T00:40:26.827Z,13.13
2022-08-05T00:42:57.897Z,13.10
2022-08-05T00:45:38.014Z,12.88
2022-08-05T00:48:12.170Z,12.88
2022-08-05T00:50:44.153Z,12.57
2022-08-05T00:54:00.643Z,13.48
2022-08-05T00:56:02.561Z,12.63
2022-08-05T00:58:30.667Z,12.07
2022-08-05T01:00:58.994Z,11.48
2022-08-05T01:03:31.101Z,11.82
2022-08-05T01:06:02.611Z,12.65
2022-08-05T01:08:42.951Z,12.13
2022-08-05T01:11:22.089Z,12.00
2022-08-05T01:14:08.473Z,11.43
2022-08-05T01:16:44.135Z,11.60
2022-08-05T01:19:56.547Z,11.57
2022-08-05T01:22:45.312Z,11.23
2022-08-05T01:25:40.999Z,11.50
2022-08-05T01:28:25.879Z,11.07
2022-08-05T01:30:58.060Z,10.63
2022-08-05T01:33:35.326Z,9.77
2022-08-05T01:36:13.229Z,9.75
2022-08-05T01:38:45.778Z,10.20
2022-08-05T01:41:20.983Z,10.60
2022-08-05T01:43:52.287Z,9.73
2022-08-05T01:46:42.019Z,10.18
2022-08-05T01:49:23.840Z,10.05
2022-08-05T01:51:58.392Z,9.52
2022-08-05T01:54:31.215Z,9.70
2022-08-05T01:58:10.035Z,9.82
2022-08-05T01:59:53.651Z,7.90
2022-08-05T02:02:28.464Z,9.68
2022-08-05T02:05:01.412Z,9.50
2022-08-05T02:07:32.135Z,9.50
2022-08-05T02:10:02.206Z,7.93
2022-08-05T02:12:41.058Z,9.50
2022-08-05T02:15:14.734Z,7.95
2022-08-05T02:18:30.759Z,7.60
2022-08-05T02:20:46.955Z,8.57
2022-08-05T02:23:18.758Z,8.07
2022-08-05T02:25:49.166Z,8.02
2022-08-05T02:28:29.067Z,7.32
2022-08-05T02:31:04.306Z,6.80
2022-08-05T02:33:38.925Z,7.93
2022-08-05T02:36:13.716Z,8.13
2022-08-05T02:38:53.523Z,7.55
2022-08-05T02:41:28.909Z,8.35
2022-08-05T02:44:13.505Z,9.15
2022-08-05T02:46:59.889Z,6.90
2022-08-05T02:49:36.048Z,7.20
2022-08-05T02:52:11.437Z,6.88
2022-08-05T02:54:42.786Z,8.25
2022-08-05T02:58:10.840Z,6.55
2022-08-05T03:00:12.691Z,7.68
2022-08-05T03:02:44.976Z,6.93
2022-08-05T03:05:15.056Z,6.50
2022-08-05T03:08:00.559Z,6.82
2022-08-05T03:10:32.673Z,6.95
2022-08-05T03:15:28.575Z,7.00
2022-08-05T03:17:59.484Z,7.18
2022-08-05T03:20:27.669Z,6.88
2022-08-05T03:22:58.042Z,6.28
2022-08-05T03:25:32.463Z,6.45
2022-08-05T03:28:03.384Z,6.18
2022-08-05T03:30:34.149Z,6.25
2022-08-05T03:33:06.302Z,6.55
2022-08-05T03:35:41.130Z,6.43
2022-08-05T03:38:11.808Z,5.50
2022-08-05T03:40:45.304Z,6.72
2022-08-05T03:44:08.996Z,6.30
2022-08-05T03:46:08.299Z,6.05
2022-08-05T03:48:37.820Z,5.90
2022-08-05T03:52:48.930Z,6.10
2022-08-05T03:56:01.562Z,5.80
2022-08-05T03:56:58.895Z,6.43
2022-08-05T03:59:46.763Z,6.47
2022-08-05T04:02:38.487Z,6.50
2022-08-05T04:05:10.371Z,5.90
2022-08-05T04:07:57.564Z,6.07
2022-08-05T04:10:27.530Z,6.13
2022-08-05T04:12:58.735Z,6.05
2022-08-05T04:15:27.980Z,5.47
2022-08-05T04:18:07.247Z,6.30
2022-08-05T04:20:37.646Z,5.85
2022-08-05T04:23:12.650Z,5.53
2022-08-05T04:25:57.276Z,5.70
2022-08-05T04:28:31.001Z,5.78
2022-08-05T04:31:00.804Z,5.78
2022-08-05T04:34:18.103Z,6.30
2022-08-05T04:36:46.241Z,5.47
2022-08-05T04:39:07.497Z,5.50
2022-08-05T04:41:36.930Z,6.28
2022-08-05T04:44:09.348Z,4.97
2022-08-05T04:46:38.735Z,7.18
2022-08-05T04:49:12.309Z,5.30
2022-08-05T04:51:44.732Z,6.05
2022-08-05T04:54:14.691Z,6.70
2022-08-05T04:56:43.687Z,7.85
2022-08-05T04:59:21.490Z,7.28
2022-08-05T05:02:07.155Z,6.35
2022-08-05T05:04:43.867Z,6.32
2022-08-05T05:07:17.482Z,5.95
2022-08-05T05:09:45.659Z,7.43
2022-08-05T05:12:13.753Z,7.65
2022-08-05T05:14:49.578Z,7.18
2022-08-05T05:17:23.911Z,6.53
2022-08-05T05:19:56.685Z,6.88
2022-08-05T05:22:26.979Z,7.35
2022-08-05T05:24:58.354Z,7.55
2022-08-05T05:27:44.309Z,7.82
2022-08-05T05:30:30.802Z,8.60
2022-08-05T05:33:03.909Z,9.98
2022-08-05T05:35:44.773Z,10.18
2022-08-05T05:38:14.824Z,9.75
2022-08-05T05:40:51.547Z,10.05
2022-08-05T05:43:27.918Z,9.95
2022-08-05T05:46:15.673Z,10.40
2022-08-05T05:48:46.308Z,10.93
2022-08-05T05:51:21.336Z,11.55
2022-08-05T05:53:57.392Z,12.25
2022-08-05T05:56:31.660Z,10.25
2022-08-05T05:59:05.113Z,11.90
2022-08-05T06:01:38.131Z,12.15
2022-08-05T06:04:12.196Z,14.18
2022-08-05T06:06:42.643Z,13.82
2022-08-05T06:09:17.485Z,13.63
2022-08-05T06:12:01.908Z,16.98
2022-08-05T06:14:31.491Z,18.15
2022-08-05T06:17:02.021Z,17.80
2022-08-05T06:19:56.775Z,15.85
2022-08-05T06:22:29.571Z,35.95
2022-08-05T06:24:59.376Z,43.22
2022-08-05T06:28:11.135Z,46.55
2022-08-05T06:30:20.153Z,43.45
2022-08-05T06:32:50.729Z,47.50
2022-08-05T06:36:03.702Z,52.58
2022-08-05T06:38:11.759Z,55.55
2022-08-05T06:40:44.487Z,55.88
2022-08-05T06:43:58.489Z,57.35
2022-08-05T06:46:06.551Z,57.03
2022-08-05T06:48:52.830Z,59.30
2022-08-05T06:51:29.716Z,68.50
2022-08-05T06:53:59.025Z,68.25
2022-08-05T06:56:28.649Z,68.80
2022-08-05T06:58:56.705Z,69.95
2022-08-05T07:01:31.985Z,72.80
2022-08-05T07:04:02.297Z,67.97
2022-08-05T07:06:32.018Z,66.57
2022-08-05T07:09:04.357Z,61.92
2022-08-05T07:11:36.906Z,61.28
2022-08-05T07:14:30.179Z,61.55
2022-08-05T07:18:01.761Z,60.92
2022-08-05T07:22:42.450Z,66.25
2022-08-05T07:25:54.805Z,69.80
2022-08-05T07:28:05.935Z,66.28
2022-08-05T07:30:39.836Z,66.15
2022-08-05T07:33:16.812Z,60.40
2022-08-05T07:36:04.527Z,58.22
2022-08-05T07:38:42.807Z,59.38
2022-08-05T07:42:08.072Z,63.08
2022-08-05T07:44:19.315Z,58.28
2022-08-05T07:46:50.607Z,62.38
2022-08-05T07:49:20.511Z,61.10
2022-08-05T07:51:54.206Z,63.03
2022-08-05T07:54:30.806Z,62.60
2022-08-05T07:57:41.800Z,61.92
2022-08-05T07:59:51.275Z,55.42
2022-08-05T08:02:19.422Z,55.70
2022-08-05T08:04:54.837Z,59.20
2022-08-05T08:07:23.493Z,54.88
2022-08-05T08:09:55.101Z,61.75
2022-08-05T08:12:33.409Z,57.22
2022-08-05T08:15:09.727Z,56.95
2022-08-05T08:17:44.001Z,57.63
2022-08-05T08:20:42.588Z,56.97
2022-08-05T08:23:07.553Z,55.17
2022-08-05T08:26:00.393Z,55.58
2022-08-05T08:28:36.746Z,60.13
2022-08-05T08:31:21.743Z,62.45
2022-08-05T08:33:51.580Z,58.83
2022-08-05T08:36:39.240Z,58.97
2022-08-05T08:39:15.648Z,67.38
2022-08-05T08:41:52.697Z,63.15
2022-08-05T08:45:16.839Z,62.20
2022-08-05T08:48:06.179Z,58.83
2022-08-05T08:50:31.212Z,61.05
2022-08-05T08:53:07.907Z,59.45
2022-08-05T08:56:03.653Z,62.15
2022-08-05T08:58:37.547Z,64.25
2022-08-05T09:01:15.838Z,62.75
2022-08-05T09:03:55.300Z,61.20
2022-08-05T09:06:29.344Z,62.33
2022-08-05T09:08:59.560Z,61.42
2022-08-05T09:11:52.941Z,57.03
2022-08-05T09:14:58.677Z,58.25
2022-08-05T09:17:08.051Z,60.20
2022-08-05T09:19:55.394Z,58.03
2022-08-05T09:22:32.011Z,60.33
2022-08-05T09:25:13.782Z,64.40
2022-08-05T09:28:03.800Z,63.60
2022-08-05T09:30:35.229Z,61.00
2022-08-05T09:33:05.446Z,57.65
2022-08-05T09:35:34.963Z,60.13
2022-08-05T09:38:16.304Z,58.63
2022-08-05T09:40:53.929Z,59.45
2022-08-05T09:43:40.578Z,61.90
2022-08-05T09:46:27.249Z,56.15
2022-08-05T09:49:06.754Z,60.47
2022-08-05T09:51:40.000Z,62.38
2022-08-05T09:54:10.059Z,59.35
2022-08-05T09:56:40.477Z,59.08
2022-08-05T09:59:19.760Z,56.90
2022-08-05T10:01:48.387Z,64.25
2022-08-05T10:04:38.516Z,59.92
2022-08-05T10:07:21.082Z,62.60
2022-08-05T10:10:14.403Z,61.47
2022-08-05T10:12:49.768Z,62.38
2022-08-05T10:15:21.578Z,56.63
2022-08-05T10:18:08.811Z,56.28
2022-08-05T10:20:40.082Z,57.95
2022-08-05T10:23:34.264Z,56.38
2022-08-05T10:26:01.964Z,56.25
2022-08-05T10:28:33.716Z,57.80
2022-08-05T10:32:49.648Z,56.55
2022-08-05T10:33:54.262Z,55.97
2022-08-05T10:36:23.572Z,54.92
2022-08-05T10:39:04.990Z,57.60
2022-08-05T10:41:44.869Z,56.88
2022-08-05T10:44:19.302Z,59.15
2022-08-05T10:46:50.967Z,59.83
2022-08-05T10:49:26.593Z,59.72
2022-08-05T10:52:00.180Z,59.70
2022-08-05T10:54:56.318Z,57.47
2022-08-05T10:57:31.992Z,61.65
2022-08-05T11:00:19.568Z,73.47
2022-08-05T11:03:25.434Z,64.38
2022-08-05T11:06:16.055Z,63.08
2022-08-05T11:09:32.115Z,62.65
2022-08-05T11:12:45.335Z,61.25
2022-08-05T11:15:22.379Z,61.97
2022-08-05T11:17:59.953Z,62.92
2022-08-05T11:20:46.214Z,57.72
2022-08-05T11:24:03.784Z,57.10
2022-08-05T11:26:32.077Z,59.35
2022-08-05T11:29:13.983Z,60.95
2022-08-05T11:31:56.968Z,60.95
2022-08-05T11:34:50.858Z,60.67
2022-08-05T11:38:30.350Z,62.63
2022-08-05T11:41:35.578Z,59.42
2022-08-05T11:44:04.763Z,59.05
2022-08-05T11:46:36.873Z,63.13
2022-08-05T11:49:10.028Z,60.22
2022-08-05T11:51:43.721Z,58.92
2022-08-05T11:54:33.674Z,64.63
2022-08-05T11:57:08.418Z,63.83
2022-08-05T11:59:54.758Z,65.75
2022-08-05T12:02:30.134Z,62.15
2022-08-05T12:05:06.884Z,61.85
2022-08-05T12:08:10.443Z,59.95
2022-08-05T12:10:42.883Z,60.78
2022-08-05T12:13:28.009Z,64.75
2022-08-05T12:16:14.693Z,59.83
2022-08-05T12:18:52.466Z,60.33
2022-08-05T12:21:26.788Z,60.90
2022-08-05T12:24:06.896Z,60.13
2022-08-05T12:26:36.442Z,62.13
2022-08-05T12:29:09.842Z,57.97
2022-08-05T12:31:53.555Z,57.95
2022-08-05T12:34:24.027Z,58.45
2022-08-05T12:36:57.420Z,60.83
2022-08-05T12:39:28.172Z,56.65
2022-08-05T12:42:14.665Z,58.58
2022-08-05T12:44:44.567Z,53.90
2022-08-05T12:47:17.175Z,60.25
2022-08-05T12:50:03.389Z,61.83
2022-08-05T12:52:41.610Z,58.10
2022-08-05T12:55:21.967Z,59.78
2022-08-05T12:58:52.426Z,57.83
2022-08-05T13:02:04.265Z,59.75
2022-08-05T13:03:33.423Z,54.95
2022-08-05T13:06:03.006Z,55.08
2022-08-05T13:08:32.992Z,50.83
2022-08-05T13:11:02.434Z,51.75
2022-08-05T13:14:04.639Z,53.60
2022-08-05T13:16:25.128Z,55.65
2022-08-05T13:18:58.875Z,57.25
2022-08-05T13:21:28.515Z,54.97
2022-08-05T13:24:08.930Z,54.72
2022-08-05T13:26:41.655Z,55.53
2022-08-05T13:29:37.573Z,55.97
2022-08-05T13:32:06.704Z,56.08
2022-08-05T13:34:35.224Z,55.50
2022-08-05T13:37:07.331Z,55.70
2022-08-05T13:40:13.838Z,53.67
2022-08-05T13:42:27.281Z,62.42
2022-08-05T13:44:56.379Z,53.63
2022-08-05T13:47:35.809Z,54.47
2022-08-05T13:50:16.905Z,55.65
2022-08-05T13:52:45.285Z,53.85
2022-08-05T13:55:40.918Z,53.70
2022-08-05T13:58:07.548Z,55.90
2022-08-05T14:00:39.431Z,55.50
2022-08-05T14:03:09.822Z,51.58
2022-08-05T14:06:04.922Z,56.97
2022-08-05T14:08:27.656Z,56.85
2022-08-05T14:11:20.623Z,58.38
2022-08-05T14:13:54.930Z,68.30
2022-08-05T14:16:26.044Z,65.30
2022-08-05T14:18:54.144Z,63.45
2022-08-05T14:22:08.545Z,62.97
2022-08-05T14:24:12.309Z,63.67
2022-08-05T14:27:08.571Z,61.13
2022-08-05T14:29:31.287Z,59.58
2022-08-05T14:32:02.558Z,58.42
2022-08-05T14:34:40.443Z,59.10
2022-08-05T14:37:08.806Z,59.55
2022-08-05T14:39:49.442Z,58.80
2022-08-05T14:42:26.229Z,61.03
2022-08-05T14:44:54.367Z,58.40
2022-08-05T14:48:02.724Z,58.08
2022-08-05T14:50:18.454Z,56.38
2022-08-05T14:52:58.349Z,67.05
2022-08-05T14:55:38.501Z,62.80
2022-08-05T14:58:13.704Z,63.05
2022-08-05T15:00:58.476Z,62.13
2022-08-05T15:03:39.141Z,60.85
2022-08-05T15:06:14.901Z,61.05
2022-08-05T15:08:59.654Z,63.63
2022-08-05T15:11:52.642Z,68.43
2022-08-05T15:14:35.083Z,70.82
2022-08-05T15:17:45.059Z,70.63
2022-08-05T15:19:58.310Z,73.85
2022-08-05T15:22:27.871Z,72.68
2022-08-05T15:24:59.370Z,76.03
2022-08-05T15:27:32.233Z,76.57
2022-08-05T15:30:06.599Z,70.55
2022-08-05T15:32:34.803Z,135.23
2022-08-05T15:35:10.575Z,81.35
2022-08-05T15:38:33.475Z,82.57
2022-08-05T15:40:58.793Z,81.97
2022-08-05T15:43:20.212Z,177.23
2022-08-05T15:46:00.123Z,81.70
2022-08-05T15:48:29.997Z,80.70
2022-08-05T15:51:03.302Z,81.55
2022-08-05T15:53:38.300Z,83.20
2022-08-05T15:56:18.884Z,86.38
2022-08-05T15:58:47.450Z,81.60
2022-08-05T16:01:18.136Z,86.10
2022-08-05T16:03:48.393Z,80.85
2022-08-05T16:06:19.610Z,84.18
2022-08-05T16:08:51.386Z,84.80
2022-08-05T16:11:42.508Z,81.65
2022-08-05T16:14:17.265Z,79.30
2022-08-05T16:16:47.281Z,77.70
2022-08-05T16:19:18.928Z,79.30
2022-08-05T16:22:01.195Z,81.57
2022-08-05T16:24:41.897Z,79.82
2022-08-05T16:27:32.262Z,78.78
2022-08-05T16:30:23.348Z,76.97
2022-08-05T16:32:56.116Z,87.15
2022-08-05T16:35:27.806Z,86.60
2022-08-05T16:38:11.925Z,86.25
2022-08-05T16:40:52.024Z,86.63
2022-08-05T16:43:25.037Z,87.38
2022-08-05T16:46:06.893Z,88.25
2022-08-05T16:48:39.393Z,86.75
2022-08-05T16:51:10.052Z,94.53
2022-08-05T16:54:03.141Z,89.20
2022-08-05T16:56:29.430Z,88.55
2022-08-05T16:58:58.220Z,89.95
2022-08-05T17:01:27.021Z,15.95
2022-08-05T17:04:16.462Z,15.30
2022-08-05T17:06:53.166Z,16.70
2022-08-05T17:09:23.054Z,15.93
2022-08-05T17:11:56.003Z,15.88
2022-08-05T17:14:37.137Z,17.65
2022-08-05T17:17:14.238Z,17.95
2022-08-05T17:19:46.113Z,17.35
2022-08-05T17:22:25.022Z,17.70
2022-08-05T17:24:56.872Z,17.60
2022-08-05T17:27:34.344Z,19.20
2022-08-05T17:30:03.389Z,18.35
2022-08-05T17:32:33.709Z,18.13
2022-08-05T17:35:04.267Z,17.83
2022-08-05T17:37:41.948Z,18.10
2022-08-05T17:40:15.939Z,17.65
2022-08-05T17:42:51.930Z,15.18
2022-08-05T17:45:22.395Z,14.50
2022-08-05T17:47:56.050Z,15.80
2022-08-05T17:50:28.517Z,16.70
2022-08-05T17:53:00.021Z,16.67
2022-08-05T17:55:38.388Z,14.35
2022-08-05T17:58:13.778Z,16.70
2022-08-05T18:00:47.797Z,13.13
2022-08-05T18:03:56.538Z,13.70
2022-08-05T18:06:11.915Z,11.75
2022-08-05T18:08:44.814Z,11.57
2022-08-05T18:11:23.329Z,11.82
2022-08-05T18:13:54.909Z,11.32
2022-08-05T18:16:23.600Z,10.23
2022-08-05T18:18:51.694Z,12.30
2022-08-05T18:21:22.893Z,12.80
2022-08-05T18:23:54.868Z,12.55
2022-08-05T18:26:27.593Z,11.93
2022-08-05T18:28:57.470Z,11.75
2022-08-05T18:31:25.830Z,10.40
2022-08-05T18:34:02.260Z,10.40
2022-08-05T18:36:31.885Z,11.55
2022-08-05T18:38:59.958Z,10.40
2022-08-05T18:41:54.956Z,9.10
2022-08-05T18:44:33.360Z,7.00
2022-08-05T18:47:04.958Z,5.10
2022-08-05T18:49:58.422Z,6.05
2022-08-05T18:52:50.840Z,5.72
2022-08-05T18:55:21.572Z,5.57
2022-08-05T18:57:53.838Z,5.28
2022-08-05T19:00:29.110Z,4.30
2022-08-05T19:03:04.262Z,4.22
2022-08-05T19:06:13.002Z,4.38
2022-08-05T19:08:30.467Z,3.97
2022-08-05T19:11:04.656Z,4.13
2022-08-05T19:13:35.732Z,4.35
2022-08-05T19:16:05.302Z,4.15
2022-08-05T19:18:53.945Z,4.43
2022-08-05T19:21:26.097Z,4.32
2022-08-05T19:24:07.164Z,5.18
2022-08-05T19:26:54.275Z,4.65
2022-08-05T19:29:26.764Z,3.67
2022-08-05T19:32:05.439Z,4.13
2022-08-05T19:34:36.898Z,4.45
2022-08-05T19:37:06.703Z,3.90
2022-08-05T19:39:45.685Z,3.03
2022-08-05T19:42:19.458Z,3.55
2022-08-05T19:45:05.749Z,2.85
2022-08-05T19:47:34.570Z,3.28
2022-08-05T19:50:07.907Z,2.95
2022-08-05T19:52:40.692Z,2.45
2022-08-05T19:56:14.416Z,2.95
2022-08-05T19:58:14.464Z,3.15
2022-08-05T20:00:47.857Z,2.47
2022-08-05T20:03:16.105Z,2.75
2022-08-05T20:05:51.312Z,2.60
2022-08-05T20:08:20.308Z,3.47
2022-08-05T20:10:50.009Z,2.75
2022-08-05T20:13:30.033Z,2.22
2022-08-05T20:16:07.800Z,2.85
2022-08-05T20:18:37.096Z,2.47
2022-08-05T20:21:06.568Z,1.85
2022-08-05T20:23:40.122Z,1.88
2022-08-05T20:26:21.649Z,2.03
2022-08-05T20:28:55.632Z,1.83
2022-08-05T20:31:37.313Z,1.80
2022-08-05T20:34:14.085Z,1.90
2022-08-05T20:36:43.828Z,1.88
2022-08-05T20:39:13.019Z,1.60
2022-08-05T20:41:45.049Z,2.10
2022-08-05T20:44:17.743Z,2.03
2022-08-05T20:46:52.751Z,1.98
2022-08-05T20:49:24.576Z,1.80
2022-08-05T20:51:54.614Z,2.30
2022-08-05T20:54:43.631Z,1.67
2022-08-05T20:57:42.628Z,1.80
2022-08-05T21:00:20.787Z,1.58
2022-08-05T21:03:01.186Z,1.75
2022-08-05T21:05:47.665Z,2.05
2022-08-05T21:08:17.961Z,1.77
2022-08-05T21:10:48.583Z,1.95
2022-08-05T21:13:26.567Z,2.25
2022-08-05T21:16:08.557Z,2.13
2022-08-05T21:18:36.683Z,2.10
2022-08-05T21:21:05.329Z,2.33
2022-08-05T21:23:37.031Z,2.13
2022-08-05T21:26:08.107Z,1.90
2022-08-05T21:28:47.939Z,2.05
2022-08-05T21:31:19.101Z,2.17
2022-08-05T21:33:49.777Z,1.95
2022-08-05T21:36:29.989Z,2.22
2022-08-05T21:39:01.127Z,1.75
2022-08-05T21:41:34.225Z,1.85
2022-08-05T21:44:05.855Z,1.60
2022-08-05T21:46:34.857Z,2.75
2022-08-05T21:49:07.290Z,2.03
2022-08-05T21:52:27.156Z,2.63
2022-08-05T21:54:27.983Z,2.30
2022-08-05T21:57:29.644Z,2.45
2022-08-05T22:00:10.701Z,2.03
2022-08-05T22:02:39.386Z,1.52
2022-08-05T22:05:15.167Z,1.60
2022-08-05T22:07:58.904Z,2.00
2022-08-05T22:10:28.318Z,2.25
2022-08-05T22:12:58.720Z,1.73
2022-08-05T22:16:01.703Z,2.30
2022-08-05T22:18:19.591Z,1.83
2022-08-05T22:20:55.089Z,2.30
2022-08-05T22:24:03.201Z,1.60
2022-08-05T22:26:49.864Z,2.25
2022-08-05T22:29:26.259Z,2.10
2022-08-05T22:31:59.593Z,1.70
2022-08-05T22:34:35.748Z,1.63
2022-08-05T22:37:08.258Z,2.08
2022-08-05T22:39:42.797Z,2.88
2022-08-05T22:42:26.122Z,1.80
2022-08-05T22:44:56.794Z,1.65
2022-08-05T22:47:29.365Z,1.75
2022-08-05T22:50:19.698Z,2.80
2022-08-05T22:52:48.114Z,2.03
2022-08-05T22:55:19.608Z,1.75
2022-08-05T22:57:49.333Z,1.48
2022-08-05T23:00:20.821Z,1.95
2022-08-05T23:02:52.161Z,2.38
2022-08-05T23:05:21.902Z,1.83
2022-08-05T23:07:51.196Z,1.88
2022-08-05T23:10:20.822Z,1.70
2022-08-05T23:12:55.013Z,1.92
2022-08-05T23:15:27.047Z,3.40
2022-08-05T23:18:03.548Z,2.08
2022-08-05T23:20:37.236Z,1.75
2022-08-05T23:23:08.697Z,1.67
2022-08-05T23:25:51.688Z,2.55
2022-08-05T23:28:27.637Z,1.88
2022-08-05T23:31:16.444Z,1.90
2022-08-05T23:34:04.199Z,1.55
2022-08-05T23:36:39.866Z,1.80
2022-08-05T23:39:17.097Z,1.45
2022-08-05T23:41:52.064Z,1.80
2022-08-05T23:44:25.011Z,1.77
2022-08-05T23:46:56.095Z,1.92
2022-08-05T23:49:35.702Z,1.92
2022-08-05T23:52:22.129Z,1.98
2022-08-05T23:54:54.731Z,1.88
2022-08-05T23:57:24.575Z,1.73
